sensor_id;sensor_type;location;lat;lon;timestamp;P1;durP1;ratioP1;P2;durP2;ratioP2
24483;SDS011;12643;51.620;7.548;2023-09-07T00:02:25;4.47;;;3.80;;
24483;SDS011;12643;51.620;7.548;2023-09-07T00:04:57;4.00;;;3.60;;
24483;SDS011;12643;51.620;7.548;2023-09-07T00:07:27;7.45;;;4.55;;
24483;SDS011;12643;51.620;7.548;2023-09-07T00:09:56;5.20;;;4.18;;
24483;SDS011;12643;51.620;7.548;2023-09-07T00:12:26;6.23;;;3.67;;
24483;SDS011;12643;51.620;7.548;2023-09-07T00:14:57;5.30;;;4.10;;
24483;SDS011;12643;51.620;7.548;2023-09-07T00:17:28;7.45;;;4.40;;
24483;SDS011;12643;51.620;7.548;2023-09-07T00:19:59;5.53;;;4.22;;
24483;SDS011;12643;51.620;7.548;2023-09-07T00:22:36;5.03;;;4.13;;
24483;SDS011;12643;51.620;7.548;2023-09-07T00:25:07;4.78;;;4.07;;
24483;SDS011;12643;51.620;7.548;2023-09-07T00:27:38;6.03;;;3.85;;
24483;SDS011;12643;51.620;7.548;2023-09-07T00:30:10;5.88;;;3.92;;
24483;SDS011;12643;51.620;7.548;2023-09-07T00:32:41;7.60;;;5.57;;
24483;SDS011;12643;51.620;7.548;2023-09-07T00:35:12;10.57;;;5.78;;
24483;SDS011;12643;51.620;7.548;2023-09-07T00:37:42;17.25;;;6.65;;
24483;SDS011;12643;51.620;7.548;2023-09-07T00:40:14;11.43;;;6.15;;
24483;SDS011;12643;51.620;7.548;2023-09-07T00:42:43;9.77;;;6.10;;
24483;SDS011;12643;51.620;7.548;2023-09-07T00:45:12;9.43;;;6.63;;
24483;SDS011;12643;51.620;7.548;2023-09-07T00:47:42;10.15;;;6.32;;
24483;SDS011;12643;51.620;7.548;2023-09-07T00:50:13;9.50;;;7.03;;
24483;SDS011;12643;51.620;7.548;2023-09-07T00:55:11;9.52;;;5.32;;
24483;SDS011;12643;51.620;7.548;2023-09-07T00:57:41;7.43;;;5.15;;
24483;SDS011;12643;51.620;7.548;2023-09-07T01:00:13;5.70;;;4.68;;
24483;SDS011;12643;51.620;7.548;2023-09-07T01:02:44;8.07;;;5.97;;
24483;SDS011;12643;51.620;7.548;2023-09-07T01:05:14;5.55;;;4.95;;
24483;SDS011;12643;51.620;7.548;2023-09-07T01:07:46;8.98;;;5.35;;
24483;SDS011;12643;51.620;7.548;2023-09-07T01:10:20;6.13;;;4.97;;
24483;SDS011;12643;51.620;7.548;2023-09-07T01:12:48;8.18;;;5.22;;
24483;SDS011;12643;51.620;7.548;2023-09-07T01:15:17;7.05;;;5.05;;
24483;SDS011;12643;51.620;7.548;2023-09-07T01:17:46;5.63;;;4.95;;
24483;SDS011;12643;51.620;7.548;2023-09-07T01:20:17;5.70;;;4.63;;
24483;SDS011;12643;51.620;7.548;2023-09-07T01:22:50;9.00;;;4.80;;
24483;SDS011;12643;51.620;7.548;2023-09-07T01:25:23;6.80;;;4.60;;
24483;SDS011;12643;51.620;7.548;2023-09-07T01:27:54;6.97;;;4.75;;
24483;SDS011;12643;51.620;7.548;2023-09-07T01:30:26;5.88;;;5.03;;
24483;SDS011;12643;51.620;7.548;2023-09-07T01:32:57;7.18;;;4.90;;
24483;SDS011;12643;51.620;7.548;2023-09-07T01:35:26;7.13;;;4.45;;
24483;SDS011;12643;51.620;7.548;2023-09-07T01:37:59;5.40;;;4.15;;
24483;SDS011;12643;51.620;7.548;2023-09-07T01:40:33;7.22;;;4.35;;
24483;SDS011;12643;51.620;7.548;2023-09-07T01:43:03;7.07;;;4.57;;
24483;SDS011;12643;51.620;7.548;2023-09-07T01:45:32;7.45;;;4.50;;
24483;SDS011;12643;51.620;7.548;2023-09-07T01:48:01;5.63;;;4.53;;
24483;SDS011;12643;51.620;7.548;2023-09-07T01:50:33;8.55;;;4.55;;
24483;SDS011;12643;51.620;7.548;2023-09-07T01:53:09;7.22;;;4.78;;
24483;SDS011;12643;51.620;7.548;2023-09-07T01:55:38;7.22;;;4.03;;
24483;SDS011;12643;51.620;7.548;2023-09-07T01:58:08;5.25;;;4.45;;
24483;SDS011;12643;51.620;7.548;2023-09-07T02:00:38;7.63;;;4.25;;
24483;SDS011;12643;51.620;7.548;2023-09-07T02:03:08;6.68;;;4.85;;
24483;SDS011;12643;51.620;7.548;2023-09-07T02:05:41;5.20;;;4.20;;
24483;SDS011;12643;51.620;7.548;2023-09-07T02:08:14;5.07;;;3.93;;
24483;SDS011;12643;51.620;7.548;2023-09-07T02:13:11;5.03;;;3.90;;
24483;SDS011;12643;51.620;7.548;2023-09-07T02:15:39;4.70;;;4.20;;
24483;SDS011;12643;51.620;7.548;2023-09-07T02:18:08;4.65;;;3.90;;
24483;SDS011;12643;51.620;7.548;2023-09-07T02:20:38;7.47;;;4.50;;
24483;SDS011;12643;51.620;7.548;2023-09-07T02:23:07;6.07;;;4.55;;
24483;SDS011;12643;51.620;7.548;2023-09-07T02:25:38;5.60;;;4.50;;
24483;SDS011;12643;51.620;7.548;2023-09-07T02:28:12;4.90;;;4.35;;
24483;SDS011;12643;51.620;7.548;2023-09-07T02:30:41;7.03;;;4.15;;
24483;SDS011;12643;51.620;7.548;2023-09-07T02:33:11;5.05;;;4.25;;
24483;SDS011;12643;51.620;7.548;2023-09-07T02:35:39;6.15;;;5.15;;
24483;SDS011;12643;51.620;7.548;2023-09-07T02:38:09;4.75;;;4.25;;
24483;SDS011;12643;51.620;7.548;2023-09-07T02:40:41;7.20;;;4.88;;
24483;SDS011;12643;51.620;7.548;2023-09-07T02:43:14;6.55;;;4.32;;
24483;SDS011;12643;51.620;7.548;2023-09-07T02:45:44;5.93;;;4.97;;
24483;SDS011;12643;51.620;7.548;2023-09-07T02:48:13;5.35;;;4.85;;
24483;SDS011;12643;51.620;7.548;2023-09-07T02:50:42;5.35;;;4.63;;
24483;SDS011;12643;51.620;7.548;2023-09-07T02:53:16;6.25;;;4.80;;
24483;SDS011;12643;51.620;7.548;2023-09-07T02:55:51;9.70;;;5.85;;
24483;SDS011;12643;51.620;7.548;2023-09-07T02:58:22;6.63;;;5.82;;
24483;SDS011;12643;51.620;7.548;2023-09-07T03:00:54;6.30;;;4.88;;
24483;SDS011;12643;51.620;7.548;2023-09-07T03:03:24;7.90;;;5.50;;
24483;SDS011;12643;51.620;7.548;2023-09-07T03:05:54;6.47;;;5.25;;
24483;SDS011;12643;51.620;7.548;2023-09-07T03:08:23;5.75;;;4.93;;
24483;SDS011;12643;51.620;7.548;2023-09-07T03:10:54;9.18;;;5.35;;
24483;SDS011;12643;51.620;7.548;2023-09-07T03:13:34;10.57;;;6.43;;
24483;SDS011;12643;51.620;7.548;2023-09-07T03:16:03;6.82;;;5.47;;
24483;SDS011;12643;51.620;7.548;2023-09-07T03:18:31;9.20;;;6.25;;
24483;SDS011;12643;51.620;7.548;2023-09-07T03:21:00;7.72;;;5.60;;
24483;SDS011;12643;51.620;7.548;2023-09-07T03:23:30;5.75;;;5.25;;
24483;SDS011;12643;51.620;7.548;2023-09-07T03:26:00;6.30;;;5.18;;
24483;SDS011;12643;51.620;7.548;2023-09-07T03:28:29;5.90;;;4.82;;
24483;SDS011;12643;51.620;7.548;2023-09-07T03:30:57;5.63;;;4.88;;
24483;SDS011;12643;51.620;7.548;2023-09-07T03:33:25;7.35;;;4.80;;
24483;SDS011;12643;51.620;7.548;2023-09-07T03:35:54;5.45;;;4.95;;
24483;SDS011;12643;51.620;7.548;2023-09-07T03:38:24;7.32;;;5.38;;
24483;SDS011;12643;51.620;7.548;2023-09-07T03:40:52;7.53;;;5.82;;
24483;SDS011;12643;51.620;7.548;2023-09-07T03:43:22;5.90;;;4.90;;
24483;SDS011;12643;51.620;7.548;2023-09-07T03:45:51;7.80;;;5.15;;
24483;SDS011;12643;51.620;7.548;2023-09-07T03:48:19;6.95;;;5.10;;
24483;SDS011;12643;51.620;7.548;2023-09-07T03:50:48;6.72;;;5.32;;
24483;SDS011;12643;51.620;7.548;2023-09-07T03:53:17;8.02;;;6.18;;
24483;SDS011;12643;51.620;7.548;2023-09-07T03:55:45;12.30;;;7.20;;
24483;SDS011;12643;51.620;7.548;2023-09-07T03:58:14;13.85;;;7.35;;
24483;SDS011;12643;51.620;7.548;2023-09-07T04:00:44;8.52;;;6.40;;
24483;SDS011;12643;51.620;7.548;2023-09-07T04:03:13;10.00;;;7.28;;
24483;SDS011;12643;51.620;7.548;2023-09-07T04:05:42;8.60;;;6.80;;
24483;SDS011;12643;51.620;7.548;2023-09-07T04:08:10;10.95;;;6.95;;
24483;SDS011;12643;51.620;7.548;2023-09-07T04:10:38;9.50;;;6.60;;
24483;SDS011;12643;51.620;7.548;2023-09-07T04:13:07;6.43;;;5.60;;
24483;SDS011;12643;51.620;7.548;2023-09-07T04:15:41;9.45;;;6.47;;
24483;SDS011;12643;51.620;7.548;2023-09-07T04:18:12;6.97;;;5.97;;
24483;SDS011;12643;51.620;7.548;2023-09-07T04:20:42;9.80;;;5.32;;
24483;SDS011;12643;51.620;7.548;2023-09-07T04:23:12;7.60;;;6.85;;
24483;SDS011;12643;51.620;7.548;2023-09-07T04:25:41;6.65;;;5.88;;
24483;SDS011;12643;51.620;7.548;2023-09-07T04:28:09;7.78;;;6.60;;
24483;SDS011;12643;51.620;7.548;2023-09-07T04:30:37;6.78;;;6.18;;
24483;SDS011;12643;51.620;7.548;2023-09-07T04:33:08;7.82;;;6.45;;
24483;SDS011;12643;51.620;7.548;2023-09-07T04:35:37;6.53;;;5.90;;
24483;SDS011;12643;51.620;7.548;2023-09-07T04:38:05;5.95;;;4.97;;
24483;SDS011;12643;51.620;7.548;2023-09-07T04:40:33;7.53;;;6.28;;
24483;SDS011;12643;51.620;7.548;2023-09-07T04:43:01;7.93;;;5.72;;
24483;SDS011;12643;51.620;7.548;2023-09-07T04:45:29;8.32;;;6.55;;
24483;SDS011;12643;51.620;7.548;2023-09-07T04:47:58;10.18;;;7.70;;
24483;SDS011;12643;51.620;7.548;2023-09-07T04:50:29;8.13;;;6.25;;
24483;SDS011;12643;51.620;7.548;2023-09-07T04:52:58;7.80;;;6.15;;
24483;SDS011;12643;51.620;7.548;2023-09-07T04:55:26;7.22;;;6.53;;
24483;SDS011;12643;51.620;7.548;2023-09-07T04:57:54;7.10;;;5.88;;
24483;SDS011;12643;51.620;7.548;2023-09-07T05:00:22;7.38;;;6.68;;
24483;SDS011;12643;51.620;7.548;2023-09-07T05:02:50;13.52;;;6.72;;
24483;SDS011;12643;51.620;7.548;2023-09-07T05:05:18;12.70;;;7.25;;
24483;SDS011;12643;51.620;7.548;2023-09-07T05:07:49;8.82;;;6.30;;
24483;SDS011;12643;51.620;7.548;2023-09-07T05:10:17;6.95;;;6.25;;
24483;SDS011;12643;51.620;7.548;2023-09-07T05:12:46;7.55;;;5.65;;
24483;SDS011;12643;51.620;7.548;2023-09-07T05:15:14;7.13;;;5.65;;
24483;SDS011;12643;51.620;7.548;2023-09-07T05:17:43;11.45;;;7.00;;
24483;SDS011;12643;51.620;7.548;2023-09-07T05:20:13;12.20;;;8.52;;
24483;SDS011;12643;51.620;7.548;2023-09-07T05:22:43;9.23;;;7.28;;
24483;SDS011;12643;51.620;7.548;2023-09-07T05:25:13;14.45;;;8.07;;
24483;SDS011;12643;51.620;7.548;2023-09-07T05:27:42;10.25;;;6.97;;
24483;SDS011;12643;51.620;7.548;2023-09-07T05:30:11;9.90;;;7.57;;
24483;SDS011;12643;51.620;7.548;2023-09-07T05:32:39;8.55;;;7.25;;
24483;SDS011;12643;51.620;7.548;2023-09-07T05:35:08;9.75;;;8.13;;
24483;SDS011;12643;51.620;7.548;2023-09-07T05:37:37;8.52;;;6.90;;
24483;SDS011;12643;51.620;7.548;2023-09-07T05:40:06;9.50;;;8.25;;
24483;SDS011;12643;51.620;7.548;2023-09-07T05:42:36;9.00;;;7.25;;
24483;SDS011;12643;51.620;7.548;2023-09-07T05:45:05;9.13;;;8.00;;
24483;SDS011;12643;51.620;7.548;2023-09-07T05:47:34;12.88;;;7.00;;
24483;SDS011;12643;51.620;7.548;2023-09-07T05:50:03;8.82;;;7.90;;
24483;SDS011;12643;51.620;7.548;2023-09-07T05:52:31;10.15;;;6.90;;
24483;SDS011;12643;51.620;7.548;2023-09-07T05:55:00;8.50;;;6.78;;
24483;SDS011;12643;51.620;7.548;2023-09-07T05:57:28;8.98;;;7.75;;
24483;SDS011;12643;51.620;7.548;2023-09-07T05:59:57;9.13;;;8.10;;
24483;SDS011;12643;51.620;7.548;2023-09-07T06:02:25;12.35;;;8.32;;
24483;SDS011;12643;51.620;7.548;2023-09-07T06:04:54;9.20;;;8.00;;
24483;SDS011;12643;51.620;7.548;2023-09-07T06:07:22;10.77;;;7.85;;
24483;SDS011;12643;51.620;7.548;2023-09-07T06:09:58;8.05;;;6.93;;
24483;SDS011;12643;51.620;7.548;2023-09-07T06:12:26;13.45;;;9.20;;
24483;SDS011;12643;51.620;7.548;2023-09-07T06:14:54;9.68;;;7.97;;
24483;SDS011;12643;51.620;7.548;2023-09-07T06:17:24;12.45;;;8.80;;
24483;SDS011;12643;51.620;7.548;2023-09-07T06:19:53;9.95;;;7.88;;
24483;SDS011;12643;51.620;7.548;2023-09-07T06:22:21;12.00;;;8.27;;
24483;SDS011;12643;51.620;7.548;2023-09-07T06:24:50;12.07;;;8.77;;
24483;SDS011;12643;51.620;7.548;2023-09-07T06:27:19;10.02;;;7.97;;
24483;SDS011;12643;51.620;7.548;2023-09-07T06:29:47;13.20;;;9.27;;
24483;SDS011;12643;51.620;7.548;2023-09-07T06:32:17;13.35;;;8.60;;
24483;SDS011;12643;51.620;7.548;2023-09-07T06:34:49;9.53;;;8.23;;
24483;SDS011;12643;51.620;7.548;2023-09-07T06:37:17;14.90;;;8.30;;
24483;SDS011;12643;51.620;7.548;2023-09-07T06:39:45;14.32;;;8.50;;
24483;SDS011;12643;51.620;7.548;2023-09-07T06:42:15;13.13;;;8.77;;
24483;SDS011;12643;51.620;7.548;2023-09-07T06:44:44;12.98;;;8.23;;
24483;SDS011;12643;51.620;7.548;2023-09-07T06:47:12;11.88;;;8.60;;
24483;SDS011;12643;51.620;7.548;2023-09-07T06:49:41;13.00;;;8.52;;
24483;SDS011;12643;51.620;7.548;2023-09-07T06:52:11;11.73;;;8.90;;
24483;SDS011;12643;51.620;7.548;2023-09-07T06:54:41;11.73;;;8.15;;
24483;SDS011;12643;51.620;7.548;2023-09-07T06:57:09;8.57;;;7.68;;
24483;SDS011;12643;51.620;7.548;2023-09-07T06:59:38;8.60;;;7.80;;
24483;SDS011;12643;51.620;7.548;2023-09-07T07:02:07;12.35;;;7.95;;
24483;SDS011;12643;51.620;7.548;2023-09-07T07:04:41;12.57;;;7.45;;
24483;SDS011;12643;51.620;7.548;2023-09-07T07:07:13;9.48;;;8.30;;
24483;SDS011;12643;51.620;7.548;2023-09-07T07:09:42;11.95;;;8.07;;
24483;SDS011;12643;51.620;7.548;2023-09-07T07:12:10;13.20;;;8.25;;
24483;SDS011;12643;51.620;7.548;2023-09-07T07:14:39;10.13;;;8.18;;
24483;SDS011;12643;51.620;7.548;2023-09-07T07:17:07;9.15;;;7.07;;
24483;SDS011;12643;51.620;7.548;2023-09-07T07:19:38;9.30;;;7.50;;
24483;SDS011;12643;51.620;7.548;2023-09-07T07:22:14;9.45;;;7.55;;
24483;SDS011;12643;51.620;7.548;2023-09-07T07:24:43;13.10;;;8.25;;
24483;SDS011;12643;51.620;7.548;2023-09-07T07:27:13;10.40;;;7.13;;
24483;SDS011;12643;51.620;7.548;2023-09-07T07:29:44;11.27;;;7.07;;
24483;SDS011;12643;51.620;7.548;2023-09-07T07:32:13;20.35;;;7.93;;
24483;SDS011;12643;51.620;7.548;2023-09-07T07:34:45;14.40;;;7.72;;
24483;SDS011;12643;51.620;7.548;2023-09-07T07:37:15;9.80;;;5.72;;
24483;SDS011;12643;51.620;7.548;2023-09-07T07:39:44;17.25;;;7.03;;
24483;SDS011;12643;51.620;7.548;2023-09-07T07:42:14;20.20;;;7.15;;
24483;SDS011;12643;51.620;7.548;2023-09-07T07:44:45;15.18;;;7.68;;
24483;SDS011;12643;51.620;7.548;2023-09-07T07:47:13;19.40;;;8.48;;
24483;SDS011;12643;51.620;7.548;2023-09-07T07:49:43;14.77;;;6.80;;
24483;SDS011;12643;51.620;7.548;2023-09-07T07:52:11;19.75;;;7.45;;
24483;SDS011;12643;51.620;7.548;2023-09-07T07:54:41;16.33;;;7.75;;
24483;SDS011;12643;51.620;7.548;2023-09-07T07:57:09;11.68;;;6.88;;
24483;SDS011;12643;51.620;7.548;2023-09-07T07:59:37;19.13;;;7.30;;
24483;SDS011;12643;51.620;7.548;2023-09-07T08:02:06;15.27;;;6.80;;
24483;SDS011;12643;51.620;7.548;2023-09-07T08:04:37;15.93;;;7.03;;
24483;SDS011;12643;51.620;7.548;2023-09-07T08:07:06;11.18;;;6.60;;
24483;SDS011;12643;51.620;7.548;2023-09-07T08:09:38;12.65;;;7.25;;
24483;SDS011;12643;51.620;7.548;2023-09-07T08:14:37;12.32;;;6.35;;
24483;SDS011;12643;51.620;7.548;2023-09-07T08:17:05;8.20;;;6.55;;
24483;SDS011;12643;51.620;7.548;2023-09-07T08:19:33;9.18;;;6.63;;
24483;SDS011;12643;51.620;7.548;2023-09-07T08:22:04;10.65;;;5.57;;
24483;SDS011;12643;51.620;7.548;2023-09-07T08:24:34;7.47;;;6.10;;
24483;SDS011;12643;51.620;7.548;2023-09-07T08:27:04;9.02;;;6.43;;
24483;SDS011;12643;51.620;7.548;2023-09-07T08:29:34;8.82;;;6.00;;
24483;SDS011;12643;51.620;7.548;2023-09-07T08:32:04;9.15;;;6.57;;
24483;SDS011;12643;51.620;7.548;2023-09-07T08:34:33;7.32;;;6.18;;
24483;SDS011;12643;51.620;7.548;2023-09-07T08:37:05;6.57;;;5.35;;
24483;SDS011;12643;51.620;7.548;2023-09-07T08:39:36;6.10;;;5.50;;
24483;SDS011;12643;51.620;7.548;2023-09-07T08:42:07;7.97;;;6.47;;
24483;SDS011;12643;51.620;7.548;2023-09-07T08:44:36;10.77;;;6.35;;
24483;SDS011;12643;51.620;7.548;2023-09-07T08:47:06;11.10;;;5.87;;
24483;SDS011;12643;51.620;7.548;2023-09-07T08:49:35;8.88;;;6.45;;
24483;SDS011;12643;51.620;7.548;2023-09-07T08:52:08;8.45;;;6.40;;
24483;SDS011;12643;51.620;7.548;2023-09-07T08:54:38;9.02;;;5.50;;
24483;SDS011;12643;51.620;7.548;2023-09-07T08:57:10;7.30;;;5.22;;
24483;SDS011;12643;51.620;7.548;2023-09-07T08:59:39;6.50;;;5.22;;
24483;SDS011;12643;51.620;7.548;2023-09-07T09:02:09;8.57;;;4.97;;
24483;SDS011;12643;51.620;7.548;2023-09-07T09:04:42;9.13;;;5.30;;
24483;SDS011;12643;51.620;7.548;2023-09-07T09:07:11;10.80;;;5.30;;
24483;SDS011;12643;51.620;7.548;2023-09-07T09:09:39;8.60;;;4.70;;
24483;SDS011;12643;51.620;7.548;2023-09-07T09:12:11;11.43;;;5.38;;
24483;SDS011;12643;51.620;7.548;2023-09-07T09:14:42;12.13;;;4.75;;
24483;SDS011;12643;51.620;7.548;2023-09-07T09:17:11;8.23;;;5.50;;
24483;SDS011;12643;51.620;7.548;2023-09-07T09:19:41;11.10;;;5.03;;
24483;SDS011;12643;51.620;7.548;2023-09-07T09:22:11;7.40;;;4.72;;
24483;SDS011;12643;51.620;7.548;2023-09-07T09:24:40;8.10;;;4.88;;
24483;SDS011;12643;51.620;7.548;2023-09-07T09:27:11;7.17;;;4.30;;
24483;SDS011;12643;51.620;7.548;2023-09-07T09:29:42;7.80;;;5.20;;
24483;SDS011;12643;51.620;7.548;2023-09-07T09:32:13;7.93;;;4.35;;
24483;SDS011;12643;51.620;7.548;2023-09-07T09:34:47;11.68;;;4.85;;
24483;SDS011;12643;51.620;7.548;2023-09-07T09:37:17;8.82;;;5.38;;
24483;SDS011;12643;51.620;7.548;2023-09-07T09:39:48;6.97;;;4.78;;
24483;SDS011;12643;51.620;7.548;2023-09-07T09:42:19;7.85;;;4.63;;
24483;SDS011;12643;51.620;7.548;2023-09-07T09:44:53;12.25;;;5.45;;
24483;SDS011;12643;51.620;7.548;2023-09-07T09:47:23;16.17;;;4.70;;
24483;SDS011;12643;51.620;7.548;2023-09-07T09:49:52;9.82;;;4.80;;
24483;SDS011;12643;51.620;7.548;2023-09-07T09:52:22;13.32;;;5.60;;
24483;SDS011;12643;51.620;7.548;2023-09-07T09:54:52;8.70;;;4.43;;
24483;SDS011;12643;51.620;7.548;2023-09-07T09:57:24;9.80;;;4.53;;
24483;SDS011;12643;51.620;7.548;2023-09-07T09:59:54;6.85;;;4.82;;
24483;SDS011;12643;51.620;7.548;2023-09-07T10:02:25;10.05;;;4.90;;
24483;SDS011;12643;51.620;7.548;2023-09-07T10:04:53;8.60;;;4.80;;
24483;SDS011;12643;51.620;7.548;2023-09-07T10:07:28;5.90;;;5.32;;
24483;SDS011;12643;51.620;7.548;2023-09-07T10:10:09;7.30;;;4.57;;
24483;SDS011;12643;51.620;7.548;2023-09-07T10:12:42;9.93;;;5.05;;
24483;SDS011;12643;51.620;7.548;2023-09-07T10:15:21;14.95;;;5.10;;
24483;SDS011;12643;51.620;7.548;2023-09-07T10:17:50;11.00;;;4.70;;
24483;SDS011;12643;51.620;7.548;2023-09-07T10:20:29;10.82;;;4.45;;
24483;SDS011;12643;51.620;7.548;2023-09-07T10:23:04;13.68;;;4.45;;
24483;SDS011;12643;51.620;7.548;2023-09-07T10:25:35;13.70;;;4.53;;
24483;SDS011;12643;51.620;7.548;2023-09-07T10:30:43;5.53;;;4.18;;
24483;SDS011;12643;51.620;7.548;2023-09-07T10:33:19;7.40;;;4.30;;
24483;SDS011;12643;51.620;7.548;2023-09-07T10:35:46;5.63;;;4.38;;
24483;SDS011;12643;51.620;7.548;2023-09-07T10:38:38;4.60;;;4.07;;
24483;SDS011;12643;51.620;7.548;2023-09-07T10:42:20;11.52;;;4.78;;
24483;SDS011;12643;51.620;7.548;2023-09-07T11:05:07;6.25;;;4.50;;
24483;SDS011;12643;51.620;7.548;2023-09-07T11:08:52;5.05;;;4.32;;
24483;SDS011;12643;51.620;7.548;2023-09-07T11:36:53;7.47;;;4.72;;
24483;SDS011;12643;51.620;7.548;2023-09-07T11:39:22;14.52;;;4.40;;
24483;SDS011;12643;51.620;7.548;2023-09-07T11:41:50;8.75;;;4.95;;
24483;SDS011;12643;51.620;7.548;2023-09-07T11:44:18;6.38;;;4.78;;
24483;SDS011;12643;51.620;7.548;2023-09-07T11:46:46;11.48;;;4.32;;
24483;SDS011;12643;51.620;7.548;2023-09-07T11:49:14;9.13;;;4.25;;
24483;SDS011;12643;51.620;7.548;2023-09-07T11:51:45;8.23;;;4.30;;
24483;SDS011;12643;51.620;7.548;2023-09-07T11:54:16;7.20;;;4.32;;
24483;SDS011;12643;51.620;7.548;2023-09-07T11:56:45;5.07;;;4.55;;
24483;SDS011;12643;51.620;7.548;2023-09-07T11:59:13;9.27;;;4.13;;
24483;SDS011;12643;51.620;7.548;2023-09-07T12:01:41;11.63;;;4.32;;
24483;SDS011;12643;51.620;7.548;2023-09-07T12:04:09;7.22;;;4.72;;
24483;SDS011;12643;51.620;7.548;2023-09-07T12:06:38;6.72;;;4.68;;
24483;SDS011;12643;51.620;7.548;2023-09-07T12:11:42;4.53;;;3.97;;
24483;SDS011;12643;51.620;7.548;2023-09-07T12:14:10;7.10;;;4.60;;
24483;SDS011;12643;51.620;7.548;2023-09-07T12:16:39;7.68;;;4.07;;
24483;SDS011;12643;51.620;7.548;2023-09-07T12:19:07;8.73;;;4.40;;
24483;SDS011;12643;51.620;7.548;2023-09-07T12:21:35;7.95;;;4.53;;
24483;SDS011;12643;51.620;7.548;2023-09-07T12:24:04;8.90;;;4.60;;
24483;SDS011;12643;51.620;7.548;2023-09-07T12:26:33;4.25;;;3.85;;
24483;SDS011;12643;51.620;7.548;2023-09-07T12:29:02;7.88;;;3.88;;
24483;SDS011;12643;51.620;7.548;2023-09-07T12:33:59;6.43;;;3.70;;
24483;SDS011;12643;51.620;7.548;2023-09-07T12:36:27;7.25;;;4.25;;
24483;SDS011;12643;51.620;7.548;2023-09-07T12:38:56;5.03;;;3.90;;
24483;SDS011;12643;51.620;7.548;2023-09-07T12:41:27;5.90;;;4.57;;
24483;SDS011;12643;51.620;7.548;2023-09-07T12:43:56;8.80;;;4.25;;
24483;SDS011;12643;51.620;7.548;2023-09-07T12:46:25;14.68;;;4.65;;
24483;SDS011;12643;51.620;7.548;2023-09-07T12:48:53;7.05;;;4.10;;
24483;SDS011;12643;51.620;7.548;2023-09-07T12:51:21;5.43;;;3.75;;
24483;SDS011;12643;51.620;7.548;2023-09-07T12:53:49;5.82;;;3.95;;
24483;SDS011;12643;51.620;7.548;2023-09-07T12:56:17;5.07;;;3.70;;
24483;SDS011;12643;51.620;7.548;2023-09-07T12:58:45;6.20;;;4.03;;
24483;SDS011;12643;51.620;7.548;2023-09-07T13:01:15;4.68;;;3.70;;
24483;SDS011;12643;51.620;7.548;2023-09-07T13:03:45;6.80;;;4.10;;
24483;SDS011;12643;51.620;7.548;2023-09-07T13:06:13;9.70;;;4.05;;
24483;SDS011;12643;51.620;7.548;2023-09-07T13:08:43;7.40;;;4.28;;
24483;SDS011;12643;51.620;7.548;2023-09-07T13:11:11;10.10;;;3.95;;
24483;SDS011;12643;51.620;7.548;2023-09-07T13:13:39;5.13;;;3.53;;
24483;SDS011;12643;51.620;7.548;2023-09-07T13:16:07;5.88;;;3.70;;
24483;SDS011;12643;51.620;7.548;2023-09-07T13:18:35;8.15;;;3.80;;
24483;SDS011;12643;51.620;7.548;2023-09-07T13:21:05;5.80;;;3.65;;
24483;SDS011;12643;51.620;7.548;2023-09-07T13:23:33;7.15;;;4.00;;
24483;SDS011;12643;51.620;7.548;2023-09-07T13:26:01;8.10;;;3.75;;
24483;SDS011;12643;51.620;7.548;2023-09-07T13:28:29;4.20;;;3.80;;
24483;SDS011;12643;51.620;7.548;2023-09-07T13:30:58;11.43;;;4.28;;
24483;SDS011;12643;51.620;7.548;2023-09-07T13:33:26;9.07;;;3.58;;
24483;SDS011;12643;51.620;7.548;2023-09-07T13:35:55;6.18;;;3.63;;
24483;SDS011;12643;51.620;7.548;2023-09-07T13:38:25;6.35;;;3.90;;
24483;SDS011;12643;51.620;7.548;2023-09-07T13:40:53;4.65;;;3.42;;
24483;SDS011;12643;51.620;7.548;2023-09-07T13:43:21;7.13;;;4.10;;
24483;SDS011;12643;51.620;7.548;2023-09-07T13:45:49;7.80;;;3.60;;
24483;SDS011;12643;51.620;7.548;2023-09-07T13:48:18;10.85;;;3.38;;
24483;SDS011;12643;51.620;7.548;2023-09-07T13:50:46;6.20;;;3.80;;
24483;SDS011;12643;51.620;7.548;2023-09-07T13:53:14;7.50;;;3.38;;
24483;SDS011;12643;51.620;7.548;2023-09-07T13:55:45;6.50;;;3.40;;
24483;SDS011;12643;51.620;7.548;2023-09-07T13:58:14;4.05;;;3.45;;
24483;SDS011;12643;51.620;7.548;2023-09-07T14:00:42;6.72;;;3.20;;
24483;SDS011;12643;51.620;7.548;2023-09-07T14:03:12;5.80;;;3.65;;
24483;SDS011;12643;51.620;7.548;2023-09-07T14:05:40;11.07;;;3.42;;
24483;SDS011;12643;51.620;7.548;2023-09-07T14:08:08;7.15;;;3.50;;
24483;SDS011;12643;51.620;7.548;2023-09-07T14:10:36;4.10;;;3.38;;
24483;SDS011;12643;51.620;7.548;2023-09-07T14:13:05;4.45;;;3.00;;
24483;SDS011;12643;51.620;7.548;2023-09-07T14:15:34;3.58;;;3.28;;
24483;SDS011;12643;51.620;7.548;2023-09-07T14:18:02;7.15;;;3.38;;
24483;SDS011;12643;51.620;7.548;2023-09-07T14:20:33;7.40;;;3.97;;
24483;SDS011;12643;51.620;7.548;2023-09-07T14:23:01;7.43;;;3.57;;
24483;SDS011;12643;51.620;7.548;2023-09-07T14:25:29;5.47;;;3.35;;
24483;SDS011;12643;51.620;7.548;2023-09-07T14:27:58;4.75;;;3.35;;
24483;SDS011;12643;51.620;7.548;2023-09-07T14:30:28;4.57;;;2.90;;
24483;SDS011;12643;51.620;7.548;2023-09-07T14:32:56;4.53;;;3.55;;
24483;SDS011;12643;51.620;7.548;2023-09-07T14:35:24;4.53;;;3.35;;
24483;SDS011;12643;51.620;7.548;2023-09-07T14:37:52;10.48;;;3.80;;
24483;SDS011;12643;51.620;7.548;2023-09-07T14:40:20;6.50;;;3.25;;
24483;SDS011;12643;51.620;7.548;2023-09-07T14:42:50;6.28;;;3.58;;
24483;SDS011;12643;51.620;7.548;2023-09-07T14:45:19;6.65;;;3.40;;
24483;SDS011;12643;51.620;7.548;2023-09-07T14:47:49;4.30;;;3.30;;
24483;SDS011;12643;51.620;7.548;2023-09-07T14:50:17;5.37;;;4.00;;
24483;SDS011;12643;51.620;7.548;2023-09-07T14:52:46;7.28;;;3.30;;
24483;SDS011;12643;51.620;7.548;2023-09-07T14:55:14;8.38;;;3.70;;
24483;SDS011;12643;51.620;7.548;2023-09-07T14:57:42;4.20;;;3.80;;
24483;SDS011;12643;51.620;7.548;2023-09-07T15:00:10;5.85;;;3.42;;
24483;SDS011;12643;51.620;7.548;2023-09-07T15:02:38;9.10;;;3.67;;
24483;SDS011;12643;51.620;7.548;2023-09-07T15:05:08;8.20;;;3.70;;
24483;SDS011;12643;51.620;7.548;2023-09-07T15:07:36;5.68;;;3.55;;
24483;SDS011;12643;51.620;7.548;2023-09-07T15:10:04;5.32;;;3.55;;
24483;SDS011;12643;51.620;7.548;2023-09-07T15:12:33;6.03;;;3.72;;
24483;SDS011;12643;51.620;7.548;2023-09-07T15:15:01;4.88;;;3.45;;
24483;SDS011;12643;51.620;7.548;2023-09-07T15:17:29;6.15;;;3.65;;
24483;SDS011;12643;51.620;7.548;2023-09-07T15:19:57;6.13;;;3.78;;
24483;SDS011;12643;51.620;7.548;2023-09-07T15:22:26;8.25;;;3.60;;
24483;SDS011;12643;51.620;7.548;2023-09-07T15:24:54;9.20;;;3.97;;
24483;SDS011;12643;51.620;7.548;2023-09-07T15:27:24;5.47;;;3.55;;
24483;SDS011;12643;51.620;7.548;2023-09-07T15:29:52;8.25;;;4.18;;
24483;SDS011;12643;51.620;7.548;2023-09-07T15:32:20;4.32;;;3.40;;
24483;SDS011;12643;51.620;7.548;2023-09-07T15:34:48;4.75;;;3.35;;
24483;SDS011;12643;51.620;7.548;2023-09-07T15:37:19;9.70;;;3.60;;
24483;SDS011;12643;51.620;7.548;2023-09-07T15:39:49;5.80;;;3.88;;
24483;SDS011;12643;51.620;7.548;2023-09-07T15:42:20;8.02;;;4.13;;
24483;SDS011;12643;51.620;7.548;2023-09-07T15:44:49;8.57;;;3.67;;
24483;SDS011;12643;51.620;7.548;2023-09-07T15:47:16;11.35;;;3.70;;
24483;SDS011;12643;51.620;7.548;2023-09-07T15:49:44;7.85;;;3.95;;
24483;SDS011;12643;51.620;7.548;2023-09-07T15:52:17;7.53;;;3.63;;
24483;SDS011;12643;51.620;7.548;2023-09-07T15:54:45;7.22;;;3.78;;
24483;SDS011;12643;51.620;7.548;2023-09-07T15:57:16;3.65;;;3.35;;
24483;SDS011;12643;51.620;7.548;2023-09-07T15:59:49;5.03;;;3.55;;
24483;SDS011;12643;51.620;7.548;2023-09-07T16:02:22;4.57;;;3.40;;
24483;SDS011;12643;51.620;7.548;2023-09-07T16:04:50;6.82;;;4.43;;